Time;durP1;ratioP1;P1;durP2;ratioP2;P2;SDS_P1;SDS_P2;PMS_P1;PMS_P2;Temp;Humidity;BMP_temperature;BMP_pressure;BME280_temperature;BME280_humidity;BME280_pressure;Samples;Min_cycle;Max_cycle;Signal;HPM_P1;HPM_P2
2021/01/13 00:09:29;;;;;;;37.55;19.27;;;;;;;-0.55;100.00;100531.19;20975201;28;20059;-70
2021/01/13 00:19:30;;;;;;;42.30;21.52;;;;;;;-0.41;100.00;100524.25;20975561;28;20463;-71
2021/01/13 00:29:31;;;;;;;38.67;19.85;;;;;;;-0.43;100.00;100526.84;20993258;28;20049;-70
2021/01/13 00:39:32;;;;;;;32.90;17.58;;;;;;;-0.70;100.00;100537.31;20973814;28;20581;-70
2021/01/13 00:49:33;;;;;;;29.88;15.25;;;;;;;-0.95;100.00;100541.72;20974077;28;20074;-70
2021/01/13 00:59:34;;;;;;;33.47;15.15;;;;;;;-1.09;100.00;100537.53;20979809;28;20508;-70
2021/01/13 01:09:35;;;;;;;37.60;17.27;;;;;;;-1.22;100.00;100552.16;20992547;28;20060;-70
2021/01/13 01:19:37;;;;;;;35.53;17.13;;;;;;;-1.22;100.00;100556.44;20988361;28;20135;-70
2021/01/13 01:29:38;;;;;;;34.63;16.92;;;;;;;-1.19;100.00;100564.13;20987862;28;20490;-70
2021/01/13 01:39:39;;;;;;;26.25;13.00;;;;;;;-1.29;100.00;100571.00;20989314;28;20184;-70
2021/01/13 01:49:45;;;;;;;28.00;12.73;;;;;;;-1.50;100.00;100581.31;20987182;28;20052;-70
2021/01/13 02:00:14;;;;;;;28.58;13.95;;;;;;;-1.60;100.00;100600.16;20985091;28;20489;-70
2021/01/13 02:10:15;;;;;;;28.40;13.80;;;;;;;-1.69;100.00;100600.19;20983418;28;20394;-70
2021/01/13 02:20:17;;;;;;;33.60;16.00;;;;;;;-1.64;100.00;100603.59;20983564;28;20037;-70
2021/01/13 02:30:24;;;;;;;35.95;15.57;;;;;;;-1.73;100.00;100610.44;20997573;28;20474;-70
2021/01/13 02:40:29;;;;;;;36.17;16.05;;;;;;;-1.84;100.00;100601.91;20981986;28;20048;-70
2021/01/13 02:50:32;;;;;;;37.10;17.65;;;;;;;-1.88;100.00;100614.75;20980722;28;20045;-70
2021/01/13 03:00:35;;;;;;;33.53;15.57;;;;;;;-1.98;100.00;100621.56;20992391;28;20048;-70
2021/01/13 03:10:38;;;;;;;35.50;15.70;;;;;;;-2.08;100.00;100621.59;20979257;28;20094;-70
2021/01/13 03:20:46;;;;;;;30.30;14.25;;;;;;;-2.14;100.00;100626.72;20982788;28;20094;-70
2021/01/13 03:30:50;;;;;;;31.45;14.00;;;;;;;-2.18;100.00;100636.94;20977949;28;20420;-70
2021/01/13 03:40:51;;;;;;;27.35;13.30;;;;;;;-2.17;100.00;100637.81;20981882;28;20583;-70
2021/01/13 03:50:55;;;;;;;23.65;11.65;;;;;;;-2.19;100.00;100650.63;20981744;28;20036;-70
2021/01/13 04:00:59;;;;;;;25.30;11.90;;;;;;;-2.17;100.00;100655.75;20979700;28;20098;-70
2021/01/13 04:11:00;;;;;;;33.70;14.07;;;;;;;-2.02;100.00;100668.59;20975872;28;20432;-70
2021/01/13 04:21:03;;;;;;;34.10;14.63;;;;;;;-2.05;100.00;100663.47;20975722;28;20557;-70
2021/01/13 04:31:05;;;;;;;37.78;14.88;;;;;;;-2.13;100.00;100680.53;20974389;28;20097;-70
2021/01/13 04:41:11;;;;;;;34.42;14.27;;;;;;;-1.91;100.00;100684.84;20991527;28;20049;-70
2021/01/13 04:51:13;;;;;;;38.75;14.90;;;;;;;-2.02;100.00;100681.41;20991048;28;20045;-70
2021/01/13 05:01:52;;;;;;;31.95;13.63;;;;;;;-2.01;100.00;100692.53;21006303;28;20094;-70
2021/01/13 05:11:55;;;;;;;39.17;12.75;;;;;;;-1.90;100.00;100707.06;20985512;28;20411;-70
2021/01/13 05:22:00;;;;;;;31.50;12.87;;;;;;;-1.90;100.00;100693.41;20992619;28;20435;-70
2021/01/13 05:32:03;;;;;;;32.92;12.00;;;;;;;-1.89;100.00;100688.28;20986703;28;20048;-70
2021/01/13 05:42:05;;;;;;;29.00;11.52;;;;;;;-1.71;100.00;100695.09;20991192;28;20044;-70
2021/01/13 05:52:08;;;;;;;23.88;10.57;;;;;;;-1.67;100.00;100693.38;20990075;28;20098;-70
2021/01/13 06:02:14;;;;;;;31.15;11.02;;;;;;;-1.84;100.00;100698.53;20988237;28;20048;-70
2021/01/13 06:12:17;;;;;;;30.95;11.05;;;;;;;-1.71;100.00;100700.25;20991580;28;20083;-70
2021/01/13 06:22:29;;;;;;;18.50;9.20;;;;;;;-1.68;100.00;100705.41;20987547;28;20730;-70
2021/01/13 06:32:32;;;;;;;23.05;10.57;;;;;;;-1.69;100.00;100707.94;20986460;28;20056;-71
2021/01/13 06:42:33;;;;;;;24.75;10.73;;;;;;;-2.00;100.00;100713.06;20981924;28;20048;-70
2021/01/13 06:52:34;;;;;;;26.38;11.95;;;;;;;-2.22;100.00;100711.28;20980671;28;20048;-70
2021/01/13 07:02:35;;;;;;;26.83;12.30;;;;;;;-2.40;100.00;100721.50;20970967;28;20053;-70
2021/01/13 07:12:37;;;;;;;28.63;11.70;;;;;;;-2.26;100.00;100730.06;20985545;28;20045;-71
2021/01/13 07:22:38;;;;;;;27.25;9.63;;;;;;;-2.03;100.00;100732.72;21003601;28;20486;-71
2021/01/13 07:32:42;;;;;;;26.58;10.90;;;;;;;-1.67;100.00;100739.56;21000607;28;20116;-70
2021/01/13 07:42:44;;;;;;;32.03;10.20;;;;;;;-1.49;100.00;100737.03;20992662;28;20040;-71
2021/01/13 07:52:48;;;;;;;30.70;11.32;;;;;;;-1.52;100.00;100749.84;20991644;28;20040;-71
2021/01/13 08:03:17;;;;;;;27.17;11.70;;;;;;;-1.54;100.00;100725.91;20993258;28;20040;-71
2021/01/13 08:13:39;;;;;;;28.05;10.82;;;;;;;-1.27;100.00;100749.03;20992682;28;20048;-72
2021/01/13 08:23:47;;;;;;;29.27;11.93;;;;;;;-1.11;100.00;100753.25;20991668;28;20739;-72
2021/01/13 08:34:01;;;;;;;34.67;13.82;;;;;;;-1.04;100.00;100760.09;20987607;28;20539;-72
2021/01/13 08:44:18;;;;;;;36.97;13.50;;;;;;;-0.78;100.00;100761.78;20970896;28;20123;-71
2021/01/13 08:54:22;;;;;;;33.50;15.00;;;;;;;-0.47;100.00;100766.81;20986994;28;20110;-71
2021/01/13 09:04:31;;;;;;;34.90;13.90;;;;;;;-0.29;100.00;100771.03;20990638;28;20051;-70
2021/01/13 09:15:06;;;;;;;30.45;13.85;;;;;;;-0.31;100.00;100774.47;20994731;28;20079;-70
2021/01/13 09:25:27;;;;;;;33.10;14.75;;;;;;;-0.36;100.00;100769.34;20998132;28;20485;-70
2021/01/13 09:35:34;;;;;;;41.42;15.70;;;;;;;-0.03;100.00;100776.03;21016033;28;20142;-70
2021/01/13 09:45:37;;;;;;;33.75;14.57;;;;;;;0.31;100.00;100768.97;20990041;28;20053;-70
2021/01/13 09:55:40;;;;;;;34.80;15.90;;;;;;;0.52;100.00;100781.69;20989606;28;20047;-70
2021/01/13 10:05:41;;;;;;;36.25;15.55;;;;;;;0.67;100.00;100779.00;20995626;28;20056;-70
2021/01/13 10:15:42;;;;;;;28.83;13.15;;;;;;;0.87;100.00;100789.13;20998976;28;20174;-70
2021/01/13 10:25:46;;;;;;;33.88;13.35;;;;;;;1.08;100.00;100785.53;20988605;28;20526;-71
2021/01/13 10:35:47;;;;;;;31.13;13.88;;;;;;;1.23;100.00;100780.22;20988522;28;20041;-71
2021/01/13 10:45:59;;;;;;;28.70;13.55;;;;;;;1.46;100.00;100760.22;20994966;28;20454;-71
2021/01/13 10:56:08;;;;;;;30.52;14.20;;;;;;;1.62;100.00;100754.00;20986220;28;20052;-71
2021/01/13 11:06:23;;;;;;;32.70;14.15;;;;;;;1.87;100.00;100744.22;20987713;28;20494;-71
2021/01/13 11:16:25;;;;;;;28.05;13.07;;;;;;;2.10;100.00;100736.16;20989093;28;20048;-71
2021/01/13 11:26:38;;;;;;;24.00;11.82;;;;;;;2.04;100.00;100703.53;21011021;28;20056;-71
2021/01/13 11:36:46;;;;;;;21.20;10.48;;;;;;;2.05;100.00;100687.16;21001416;28;20134;-70
2021/01/13 11:46:56;;;;;;;23.85;10.02;;;;;;;2.22;100.00;100674.00;20997187;28;20047;-71
2021/01/13 11:57:17;;;;;;;18.40;9.15;;;;;;;2.12;100.00;100673.28;20993035;28;20420;-72
2021/01/13 12:07:19;;;;;;;20.73;9.43;;;;;;;2.44;100.00;100659.84;20997283;28;20106;-70
2021/01/13 12:17:21;;;;;;;17.48;7.57;;;;;;;2.53;97.98;100643.34;21000529;28;20098;-72
2021/01/13 12:27:26;;;;;;;22.92;8.57;;;;;;;2.69;98.23;100624.13;20991448;28;20041;-72
2021/01/13 12:37:27;;;;;;;15.73;6.55;;;;;;;2.54;95.44;100609.72;20991193;28;20466;-71
2021/01/13 12:47:28;;;;;;;17.88;6.25;;;;;;;2.28;95.76;100593.00;20999215;28;20049;-70
2021/01/13 12:57:29;;;;;;;19.73;6.68;;;;;;;2.12;97.30;100561.44;21005298;28;20064;-70
2021/01/13 13:07:32;;;;;;;18.05;6.82;;;;;;;2.14;97.29;100568.25;21027276;28;20147;-71
2021/01/13 13:17:37;;;;;;;21.48;8.55;;;;;;;2.18;98.99;100565.63;21004345;28;20106;-72
2021/01/13 13:27:38;;;;;;;;;;;;;;;2.11;99.48;100551.97;21014351;28;20048;-72
2021/01/13 13:37:40;;;;;;;17.33;9.20;;;;;;;2.03;100.00;100559.00;21012652;28;19929;-71
2021/01/13 13:47:41;;;;;;;16.23;7.75;;;;;;;1.80;99.86;100532.72;21003831;28;20048;-70
2021/01/13 13:57:43;;;;;;;20.17;7.78;;;;;;;1.82;99.93;100512.91;21020572;28;20511;-71
2021/01/13 14:07:43;;;;;;;18.02;6.40;;;;;;;2.01;97.31;100507.41;21010313;28;20074;-71
2021/01/13 14:17:45;;;;;;;18.10;7.53;;;;;;;2.07;95.44;100493.53;21023026;28;20040;-71
2021/01/13 14:27:47;;;;;;;14.77;5.53;;;;;;;1.92;94.84;100481.75;21018577;28;20503;-71
2021/01/13 14:37:49;;;;;;;11.05;4.72;;;;;;;2.00;93.39;100466.13;21027958;28;20044;-71
2021/01/13 14:47:50;;;;;;;12.63;5.47;;;;;;;2.24;90.74;100452.75;20996485;28;20450;-71
2021/01/13 14:57:50;;;;;;;11.57;4.60;;;;;;;2.26;89.83;100443.25;21015007;28;20063;-72
2021/01/13 15:07:51;;;;;;;11.35;4.00;;;;;;;2.32;89.51;100435.38;20993801;28;20063;-72
2021/01/13 15:17:55;;;;;;;10.32;4.05;;;;;;;2.31;91.05;100445.72;21007308;28;20051;-72
2021/01/13 15:27:57;;;;;;;11.00;4.38;;;;;;;2.29;90.81;100422.50;21014398;28;20080;-71
2021/01/13 15:37:58;;;;;;;8.60;3.70;;;;;;;2.47;90.08;100401.50;21005412;28;20050;-71
2021/01/13 15:47:59;;;;;;;13.50;5.55;;;;;;;2.40;90.29;100401.63;21003118;28;20309;-71
2021/01/13 15:58:08;;;;;;;13.38;5.65;;;;;;;2.37;90.22;100389.66;21001601;28;20052;-71
2021/01/13 16:08:09;;;;;;;12.02;5.43;;;;;;;2.19;91.94;100374.53;21009479;28;20063;-72
2021/01/13 16:18:11;;;;;;;15.90;7.38;;;;;;;2.24;91.39;100362.38;21028550;28;20550;-72
2021/01/13 16:28:12;;;;;;;17.92;8.02;;;;;;;2.07;93.52;100349.81;21013447;28;20044;-72
2021/01/13 16:38:13;;;;;;;13.52;7.43;;;;;;;2.14;93.54;100335.03;21012475;28;20052;-72
2021/01/13 16:48:14;;;;;;;19.95;8.98;;;;;;;2.15;94.14;100318.66;21022414;28;20040;-72
2021/01/13 16:58:20;;;;;;;14.27;7.10;;;;;;;2.25;93.36;100309.84;21013129;28;20060;-72
2021/01/13 17:08:21;;;;;;;13.43;6.63;;;;;;;2.23;94.50;100290.97;20995188;28;20045;-70
2021/01/13 17:18:23;;;;;;;12.50;6.05;;;;;;;2.37;96.00;100306.16;21000141;28;20044;-70
2021/01/13 17:28:25;;;;;;;13.65;8.25;;;;;;;2.39;100.00;100300.06;21003909;28;20041;-70
2021/01/13 17:38:29;;;;;;;17.13;8.10;;;;;;;2.46;100.00;100296.47;21010770;28;20049;-70
2021/01/13 17:48:30;;;;;;;17.67;8.40;;;;;;;2.45;100.00;100283.56;21001797;28;20536;-70
2021/01/13 17:58:31;;;;;;;18.83;10.88;;;;;;;2.32;100.00;100275.28;21004950;28;20053;-70
2021/01/13 18:08:32;;;;;;;14.68;7.68;;;;;;;2.40;100.00;100259.59;21006786;28;20047;-70
2021/01/13 18:18:33;;;;;;;15.90;8.60;;;;;;;2.46;100.00;100260.31;20995309;28;20049;-70
2021/01/13 18:28:34;;;;;;;18.23;8.85;;;;;;;2.54;100.00;100247.19;20990537;28;20143;-71
2021/01/13 18:38:35;;;;;;;17.60;8.48;;;;;;;2.54;100.00;100226.53;21005683;28;20489;-70
2021/01/13 18:48:36;;;;;;;17.45;9.38;;;;;;;2.50;100.00;100248.16;21001420;28;20467;-70
2021/01/13 18:58:37;;;;;;;17.75;9.93;;;;;;;2.57;100.00;100239.38;21006450;28;20429;-70
2021/01/13 19:08:38;;;;;;;21.60;10.30;;;;;;;2.67;100.00;100232.25;20993022;28;20044;-70
2021/01/13 19:18:44;;;;;;;16.58;8.93;;;;;;;2.70;100.00;100211.50;21002355;28;20049;-70
2021/01/13 19:28:45;;;;;;;18.40;10.32;;;;;;;2.66;100.00;100181.47;21003545;28;20110;-70
2021/01/13 19:38:47;;;;;;;22.20;12.10;;;;;;;2.75;100.00;100176.91;20996336;28;20469;-70
2021/01/13 19:48:59;;;;;;;22.80;13.13;;;;;;;2.68;100.00;100169.34;20989690;28;20076;-70
2021/01/13 19:59:00;;;;;;;21.35;12.85;;;;;;;2.57;100.00;100180.81;21002173;28;20049;-70
2021/01/13 20:09:01;;;;;;;22.98;12.85;;;;;;;2.61;100.00;100166.06;20986342;28;20063;-70
2021/01/13 20:19:04;;;;;;;30.58;14.95;;;;;;;2.63;100.00;100150.53;20988620;28;20048;-70
2021/01/13 20:29:05;;;;;;;24.67;13.05;;;;;;;2.73;100.00;100163.19;20988100;28;20041;-70
2021/01/13 20:39:16;;;;;;;24.85;13.30;;;;;;;2.90;100.00;100162.72;20987509;28;20045;-70
2021/01/13 20:49:17;;;;;;;25.45;13.25;;;;;;;2.89;100.00;100155.88;20994596;28;20071;-70
2021/01/13 20:59:19;;;;;;;21.40;12.48;;;;;;;2.99;100.00;100163.34;20996379;28;20049;-72
2021/01/13 21:09:22;;;;;;;22.35;12.48;;;;;;;3.02;100.00;100193.41;20980528;28;20106;-72
2021/01/13 21:19:23;;;;;;;25.75;13.15;;;;;;;3.06;100.00;100189.84;20996523;28;20493;-71
2021/01/13 21:29:25;;;;;;;23.42;13.77;;;;;;;3.10;100.00;100165.59;21005114;28;20419;-71
2021/01/13 21:39:26;;;;;;;26.52;14.25;;;;;;;3.04;100.00;100157.19;21000238;28;20064;-71
2021/01/13 21:49:27;;;;;;;23.60;13.15;;;;;;;3.08;100.00;100182.91;21010822;28;20058;-70
2021/01/13 21:59:28;;;;;;;23.05;14.32;;;;;;;3.09;100.00;100186.34;20998423;28;20526;-70
2021/01/13 22:09:29;;;;;;;23.13;12.73;;;;;;;3.15;100.00;100210.28;20992395;28;20416;-70
2021/01/13 22:19:30;;;;;;;20.67;12.35;;;;;;;3.11;100.00;100223.34;20996343;28;20568;-70
2021/01/13 22:29:31;;;;;;;25.63;12.77;;;;;;;3.06;100.00;100226.06;20989332;28;20466;-71
2021/01/13 22:39:32;;;;;;;23.13;13.93;;;;;;;3.00;100.00;100190.00;20990107;28;20044;-71
2021/01/13 22:49:33;;;;;;;30.58;17.58;;;;;;;3.04;100.00;100242.50;20990230;28;20067;-71
2021/01/13 22:59:34;;;;;;;24.92;14.65;;;;;;;2.92;100.00;100225.56;20997267;28;20099;-71
2021/01/13 23:09:38;;;;;;;20.55;12.63;;;;;;;2.94;100.00;100247.06;20994276;28;20093;-71
2021/01/13 23:19:39;;;;;;;23.63;14.40;;;;;;;2.93;100.00;100247.97;20994990;28;20049;-71
2021/01/13 23:29:40;;;;;;;26.55;15.82;;;;;;;2.86;100.00;100280.00;20991229;28;20056;-71
2021/01/13 23:39:41;;;;;;;24.65;13.95;;;;;;;2.77;100.00;100270.75;20996555;28;20044;-71
2021/01/13 23:49:42;;;;;;;19.33;11.15;;;;;;;2.77;100.00;100270.75;20988118;28;20051;-71
2021/01/13 23:59:43;;;;;;;17.75;9.77;;;;;;;2.74;100.00;100272.56;20986959;28;20037;-71
